HRHO2: North Canadian River

                                SHEF ID:       HRHO2     North Canadian River near Harrah
STATION TYPE:
Regulating: Stage = 15.00, Flow = 8563

STAGE RIV-FLOW WTR-TEMP DIS-OXY PH CONDUCT BAT-LOAD
ft cfs F mg/l su umho/cm volt
Ccp-Rev Ccp-Rev Ccp-Rev Ccp-Rev Ccp-Rev Ccp-Rev Ccp-Rev
(America/Chicago)
02/06 00:00 3.34 141 51.53 9.87 7.88 969 12.04
02/06 01:00 3.34 141 51.17 9.77 7.87 974 12.04
02/06 02:00 3.35 143 50.81 9.67 7.84 977 12.02
02/06 03:00 3.35 143 50.47 9.61 7.84 980 12.01
02/06 04:00 3.36 145 50.14 9.58 7.83 985 12.00
02/06 05:00 3.36 145 49.78 9.58 7.84 994 11.98
02/06 06:00 3.37 147 49.39 9.62 7.85 1000 11.97
02/06 07:00 3.37 147 49.01 9.67 7.86 1001 11.96
02/06 08:00 3.38 148 48.90 9.89 7.86 997 11.94
02/06 09:00 3.38 148 49.55 10.25 7.88 988 11.98
02/06 10:00 3.39 150 51.01 10.62 7.90 980 12.23
02/06 11:00 3.39 150 52.90 10.99 7.95 976 12.64
02/06 12:00 3.39 150 55.00 11.36 8.00 974 12.88
02/06 13:00 3.39 150 56.98 11.63 8.05 972 12.84
02/06 14:00 3.38 148 58.57 11.79 8.12 972 12.96
02/06 15:00 3.38 148 59.47 11.84 8.16 971 13.02
02/06 16:00 3.38 148 59.45 11.76 8.20 972 13.18
02/06 17:00 3.38 148 58.75 11.43 8.19 971 13.11
02/06 18:00 3.37 147 57.83 10.99 8.16 966 12.80
02/06 19:00 3.36 145 56.93 10.57 8.11 962 12.47
02/06 20:00 3.35 143 56.05 10.21 8.06 965 12.26
02/06 21:00 3.34 141 55.33 9.93 8.02 971 12.11
02/06 22:00 3.33 139 54.52 9.73 7.98 975 12.04
02/06 23:00 3.32 138 54.12 9.65 7.96 977 12.06
Data processed at Sat 07Feb2026 05:25 GMT

NOTICE: If you are parsing this page

Please convert to using our Data API. Starting early 2026 we will be migrating to: https://water.usace.army.mil with modern pages rendered in JavaScript. When this migration completes you will no longer be able to scrape this page! CWMSDataAPI (CDA)

Timeseries IDs (TSIDs)

TSIDs used from left to right in the data table
HARR.Stage.Inst.1Hour.0.Ccp-Rev
HARR.Flow.Inst.1Hour.0.Ccp-Rev
HARR.Temp-Water.Inst.1Hour.0.Ccp-Rev
HARR.Conc-DO.Inst.1Hour.0.Ccp-Rev
HARR.pH.Inst.1Hour.0.Ccp-Rev
HARR.Cond-Water.Inst.1Hour.0.Ccp-Rev
HARR.Volt-Battery Load.Inst.1Hour.0.Ccp-Rev

                            

All information presented herein is the property of the government of the United States of America and may be revised or deleted at any time without prior notice. Dissemination of this information without the expressed written consent of the Public Affairs Office, Tulsa District U.S. Army Corps of Engineers is strictly prohibited. These data are gathered electronically and, as presented, have NOT undergone any form of quality control. These data are NOT guaranteed to be valid or correct.